sensor_id;sensor_type;location;lat;lon;timestamp;temperature;humidity
54260;DHT22;40172;53.022;7.012;2024-02-26T00:02:16;3.50;99.90
54260;DHT22;40172;53.022;7.012;2024-02-26T00:04:41;3.70;99.90
54260;DHT22;40172;53.022;7.012;2024-02-26T00:07:07;3.80;99.90
54260;DHT22;40172;53.022;7.012;2024-02-26T00:09:32;3.80;99.90
54260;DHT22;40172;53.022;7.012;2024-02-26T00:12:01;3.60;99.90
54260;DHT22;40172;53.022;7.012;2024-02-26T00:14:27;3.80;99.90
54260;DHT22;40172;53.022;7.012;2024-02-26T00:16:53;3.60;99.90
54260;DHT22;40172;53.022;7.012;2024-02-26T00:19:18;3.60;99.90
54260;DHT22;40172;53.022;7.012;2024-02-26T00:21:44;3.60;99.90
54260;DHT22;40172;53.022;7.012;2024-02-26T00:24:09;3.70;99.90
54260;DHT22;40172;53.022;7.012;2024-02-26T00:26:35;3.60;99.90
54260;DHT22;40172;53.022;7.012;2024-02-26T00:29:00;3.90;99.90
54260;DHT22;40172;53.022;7.012;2024-02-26T00:31:26;3.80;99.90
54260;DHT22;40172;53.022;7.012;2024-02-26T00:33:52;3.60;99.90
54260;DHT22;40172;53.022;7.012;2024-02-26T00:36:18;3.50;99.90
54260;DHT22;40172;53.022;7.012;2024-02-26T00:38:44;3.60;99.90
54260;DHT22;40172;53.022;7.012;2024-02-26T00:41:11;3.50;99.90
54260;DHT22;40172;53.022;7.012;2024-02-26T00:43:37;3.60;99.90
54260;DHT22;40172;53.022;7.012;2024-02-26T00:46:04;3.30;99.90
54260;DHT22;40172;53.022;7.012;2024-02-26T00:48:30;3.50;99.90
54260;DHT22;40172;53.022;7.012;2024-02-26T00:50:55;3.30;99.90
54260;DHT22;40172;53.022;7.012;2024-02-26T00:53:21;3.10;99.90
54260;DHT22;40172;53.022;7.012;2024-02-26T00:55:46;3.50;99.90
54260;DHT22;40172;53.022;7.012;2024-02-26T00:58:12;3.40;99.90
54260;DHT22;40172;53.022;7.012;2024-02-26T01:00:38;3.10;99.90
54260;DHT22;40172;53.022;7.012;2024-02-26T01:03:03;3.20;99.90
54260;DHT22;40172;53.022;7.012;2024-02-26T01:05:30;3.20;99.90
54260;DHT22;40172;53.022;7.012;2024-02-26T01:07:55;3.30;99.90
54260;DHT22;40172;53.022;7.012;2024-02-26T01:10:21;3.00;99.90
54260;DHT22;40172;53.022;7.012;2024-02-26T01:12:46;3.30;99.90
54260;DHT22;40172;53.022;7.012;2024-02-26T01:15:13;3.00;99.90
54260;DHT22;40172;53.022;7.012;2024-02-26T01:17:38;3.20;99.90
54260;DHT22;40172;53.022;7.012;2024-02-26T01:20:04;3.20;99.90
54260;DHT22;40172;53.022;7.012;2024-02-26T01:22:30;3.20;99.90
54260;DHT22;40172;53.022;7.012;2024-02-26T01:24:55;2.90;99.90
54260;DHT22;40172;53.022;7.012;2024-02-26T01:27:22;3.00;99.90
54260;DHT22;40172;53.022;7.012;2024-02-26T01:29:52;2.90;99.90
54260;DHT22;40172;53.022;7.012;2024-02-26T01:32:17;2.80;99.90
54260;DHT22;40172;53.022;7.012;2024-02-26T01:34:43;3.10;99.90
54260;DHT22;40172;53.022;7.012;2024-02-26T01:37:08;3.00;99.90
54260;DHT22;40172;53.022;7.012;2024-02-26T01:39:34;3.20;99.90
54260;DHT22;40172;53.022;7.012;2024-02-26T01:41:59;2.80;99.90
54260;DHT22;40172;53.022;7.012;2024-02-26T01:44:26;3.10;99.90
54260;DHT22;40172;53.022;7.012;2024-02-26T01:46:51;4.10;99.90
54260;DHT22;40172;53.022;7.012;2024-02-26T01:49:18;3.10;99.90
54260;DHT22;40172;53.022;7.012;2024-02-26T01:51:44;2.50;99.90
54260;DHT22;40172;53.022;7.012;2024-02-26T01:54:10;3.80;99.90
54260;DHT22;40172;53.022;7.012;2024-02-26T01:56:36;2.80;99.90
54260;DHT22;40172;53.022;7.012;2024-02-26T01:59:03;3.10;99.90
54260;DHT22;40172;53.022;7.012;2024-02-26T02:01:29;3.90;99.90
54260;DHT22;40172;53.022;7.012;2024-02-26T02:03:59;2.90;99.90
54260;DHT22;40172;53.022;7.012;2024-02-26T02:06:25;2.90;99.90
54260;DHT22;40172;53.022;7.012;2024-02-26T02:08:52;3.20;99.90
54260;DHT22;40172;53.022;7.012;2024-02-26T02:11:17;3.20;99.90
54260;DHT22;40172;53.022;7.012;2024-02-26T02:13:43;3.10;99.90
54260;DHT22;40172;53.022;7.012;2024-02-26T02:16:08;3.10;99.90
54260;DHT22;40172;53.022;7.012;2024-02-26T02:18:34;2.80;99.90
54260;DHT22;40172;53.022;7.012;2024-02-26T02:21:00;3.10;99.90
54260;DHT22;40172;53.022;7.012;2024-02-26T02:23:25;2.90;99.90
54260;DHT22;40172;53.022;7.012;2024-02-26T02:25:51;2.90;99.90
54260;DHT22;40172;53.022;7.012;2024-02-26T02:28:17;3.00;99.90
54260;DHT22;40172;53.022;7.012;2024-02-26T02:30:43;3.10;99.90
54260;DHT22;40172;53.022;7.012;2024-02-26T02:33:08;3.00;99.90
54260;DHT22;40172;53.022;7.012;2024-02-26T02:35:34;3.10;99.90
54260;DHT22;40172;53.022;7.012;2024-02-26T02:38:00;2.90;99.90
54260;DHT22;40172;53.022;7.012;2024-02-26T02:40:25;3.00;99.90
54260;DHT22;40172;53.022;7.012;2024-02-26T02:42:51;3.10;99.90
54260;DHT22;40172;53.022;7.012;2024-02-26T02:45:17;2.90;99.90
54260;DHT22;40172;53.022;7.012;2024-02-26T02:47:42;2.70;99.90
54260;DHT22;40172;53.022;7.012;2024-02-26T02:50:08;3.10;99.90
54260;DHT22;40172;53.022;7.012;2024-02-26T02:52:33;2.80;99.90
54260;DHT22;40172;53.022;7.012;2024-02-26T02:54:59;2.90;99.90
54260;DHT22;40172;53.022;7.012;2024-02-26T02:57:24;3.10;99.90
54260;DHT22;40172;53.022;7.012;2024-02-26T02:59:50;3.00;99.90
54260;DHT22;40172;53.022;7.012;2024-02-26T03:02:16;2.80;99.90
54260;DHT22;40172;53.022;7.012;2024-02-26T03:04:41;2.90;99.90
54260;DHT22;40172;53.022;7.012;2024-02-26T03:07:07;3.20;99.90
54260;DHT22;40172;53.022;7.012;2024-02-26T03:09:32;3.10;99.90
54260;DHT22;40172;53.022;7.012;2024-02-26T03:11:58;3.10;99.90
54260;DHT22;40172;53.022;7.012;2024-02-26T03:14:23;3.10;99.90
54260;DHT22;40172;53.022;7.012;2024-02-26T03:16:49;3.20;99.90
54260;DHT22;40172;53.022;7.012;2024-02-26T03:19:15;3.00;99.90
54260;DHT22;40172;53.022;7.012;2024-02-26T03:21:41;3.20;99.90
54260;DHT22;40172;53.022;7.012;2024-02-26T03:24:07;3.10;99.90
54260;DHT22;40172;53.022;7.012;2024-02-26T03:26:36;3.40;99.90
54260;DHT22;40172;53.022;7.012;2024-02-26T03:29:01;3.40;99.90
54260;DHT22;40172;53.022;7.012;2024-02-26T03:31:28;3.30;99.90
54260;DHT22;40172;53.022;7.012;2024-02-26T03:33:53;3.20;99.90
54260;DHT22;40172;53.022;7.012;2024-02-26T03:36:19;3.40;99.90
54260;DHT22;40172;53.022;7.012;2024-02-26T03:38:45;3.40;99.90
54260;DHT22;40172;53.022;7.012;2024-02-26T03:41:10;3.40;99.90
54260;DHT22;40172;53.022;7.012;2024-02-26T03:43:36;3.60;99.90
54260;DHT22;40172;53.022;7.012;2024-02-26T03:46:01;3.40;99.90
54260;DHT22;40172;53.022;7.012;2024-02-26T03:48:27;3.50;99.90
54260;DHT22;40172;53.022;7.012;2024-02-26T03:50:53;3.20;99.90
54260;DHT22;40172;53.022;7.012;2024-02-26T03:53:18;3.50;99.90
54260;DHT22;40172;53.022;7.012;2024-02-26T03:55:44;3.50;99.90
54260;DHT22;40172;53.022;7.012;2024-02-26T03:58:11;3.40;99.90
54260;DHT22;40172;53.022;7.012;2024-02-26T04:00:37;3.90;99.90
54260;DHT22;40172;53.022;7.012;2024-02-26T04:03:03;3.30;99.90
54260;DHT22;40172;53.022;7.012;2024-02-26T04:05:28;3.10;99.90
54260;DHT22;40172;53.022;7.012;2024-02-26T04:07:54;3.00;99.90
54260;DHT22;40172;53.022;7.012;2024-02-26T04:10:19;3.30;99.90
54260;DHT22;40172;53.022;7.012;2024-02-26T04:12:45;3.10;99.90
54260;DHT22;40172;53.022;7.012;2024-02-26T04:15:11;3.10;99.90
54260;DHT22;40172;53.022;7.012;2024-02-26T04:17:37;3.10;99.90
54260;DHT22;40172;53.022;7.012;2024-02-26T04:20:03;2.90;99.90
54260;DHT22;40172;53.022;7.012;2024-02-26T04:22:28;2.80;99.90
54260;DHT22;40172;53.022;7.012;2024-02-26T04:24:54;3.00;99.90
54260;DHT22;40172;53.022;7.012;2024-02-26T04:27:19;2.90;99.90
54260;DHT22;40172;53.022;7.012;2024-02-26T04:29:45;2.90;99.90
54260;DHT22;40172;53.022;7.012;2024-02-26T04:32:11;2.80;99.90
54260;DHT22;40172;53.022;7.012;2024-02-26T04:34:36;2.70;99.90
54260;DHT22;40172;53.022;7.012;2024-02-26T04:37:02;2.70;99.90
54260;DHT22;40172;53.022;7.012;2024-02-26T04:39:27;2.60;99.90
54260;DHT22;40172;53.022;7.012;2024-02-26T04:41:53;2.60;99.90
54260;DHT22;40172;53.022;7.012;2024-02-26T04:44:18;2.40;99.90
54260;DHT22;40172;53.022;7.012;2024-02-26T04:46:44;2.50;99.90
54260;DHT22;40172;53.022;7.012;2024-02-26T04:49:09;2.40;99.90
54260;DHT22;40172;53.022;7.012;2024-02-26T04:51:35;2.60;99.90
54260;DHT22;40172;53.022;7.012;2024-02-26T04:54:00;2.50;99.90
54260;DHT22;40172;53.022;7.012;2024-02-26T04:56:26;2.30;99.90
54260;DHT22;40172;53.022;7.012;2024-02-26T04:58:51;2.50;99.90
54260;DHT22;40172;53.022;7.012;2024-02-26T05:01:17;2.70;99.90
54260;DHT22;40172;53.022;7.012;2024-02-26T05:03:44;2.80;99.90
54260;DHT22;40172;53.022;7.012;2024-02-26T05:06:09;2.80;99.90
54260;DHT22;40172;53.022;7.012;2024-02-26T05:08:35;2.60;99.90
54260;DHT22;40172;53.022;7.012;2024-02-26T05:11:04;2.50;99.90
54260;DHT22;40172;53.022;7.012;2024-02-26T05:13:29;2.70;99.90
54260;DHT22;40172;53.022;7.012;2024-02-26T05:15:55;2.80;99.90
54260;DHT22;40172;53.022;7.012;2024-02-26T05:18:21;2.30;99.90
54260;DHT22;40172;53.022;7.012;2024-02-26T05:20:47;2.70;99.90
54260;DHT22;40172;53.022;7.012;2024-02-26T05:23:12;2.80;99.90
54260;DHT22;40172;53.022;7.012;2024-02-26T05:25:38;2.60;99.90
54260;DHT22;40172;53.022;7.012;2024-02-26T05:28:04;2.30;99.90
54260;DHT22;40172;53.022;7.012;2024-02-26T05:32:55;2.90;99.90
54260;DHT22;40172;53.022;7.012;2024-02-26T05:35:21;2.40;99.90
54260;DHT22;40172;53.022;7.012;2024-02-26T05:37:47;2.80;99.90
54260;DHT22;40172;53.022;7.012;2024-02-26T05:40:12;2.50;99.90
54260;DHT22;40172;53.022;7.012;2024-02-26T05:42:38;2.50;99.90
54260;DHT22;40172;53.022;7.012;2024-02-26T05:45:04;2.90;99.90
54260;DHT22;40172;53.022;7.012;2024-02-26T05:47:34;2.50;99.90
54260;DHT22;40172;53.022;7.012;2024-02-26T05:50:00;3.00;99.90
54260;DHT22;40172;53.022;7.012;2024-02-26T05:52:26;2.90;99.90
54260;DHT22;40172;53.022;7.012;2024-02-26T05:54:53;2.80;99.90
54260;DHT22;40172;53.022;7.012;2024-02-26T05:57:19;2.90;99.90
54260;DHT22;40172;53.022;7.012;2024-02-26T05:59:44;2.80;99.90
54260;DHT22;40172;53.022;7.012;2024-02-26T06:02:10;3.00;99.90
54260;DHT22;40172;53.022;7.012;2024-02-26T06:04:36;2.80;99.90
54260;DHT22;40172;53.022;7.012;2024-02-26T06:07:02;2.70;99.90
54260;DHT22;40172;53.022;7.012;2024-02-26T06:09:27;2.50;99.90
54260;DHT22;40172;53.022;7.012;2024-02-26T06:11:53;2.60;99.90
54260;DHT22;40172;53.022;7.012;2024-02-26T06:14:19;3.00;99.90
54260;DHT22;40172;53.022;7.012;2024-02-26T06:16:45;3.00;99.90
54260;DHT22;40172;53.022;7.012;2024-02-26T06:19:11;3.00;99.90
54260;DHT22;40172;53.022;7.012;2024-02-26T06:21:37;2.70;99.90
54260;DHT22;40172;53.022;7.012;2024-02-26T06:24:02;2.50;99.90
54260;DHT22;40172;53.022;7.012;2024-02-26T06:26:28;3.00;99.90
54260;DHT22;40172;53.022;7.012;2024-02-26T06:28:54;2.70;99.90
54260;DHT22;40172;53.022;7.012;2024-02-26T06:31:21;2.90;99.90
54260;DHT22;40172;53.022;7.012;2024-02-26T06:33:48;2.90;99.90
54260;DHT22;40172;53.022;7.012;2024-02-26T06:36:15;2.90;99.90
54260;DHT22;40172;53.022;7.012;2024-02-26T06:38:40;2.80;99.90
54260;DHT22;40172;53.022;7.012;2024-02-26T06:41:06;2.60;99.90
54260;DHT22;40172;53.022;7.012;2024-02-26T06:43:31;2.80;99.90
54260;DHT22;40172;53.022;7.012;2024-02-26T06:45:57;2.60;99.90
54260;DHT22;40172;53.022;7.012;2024-02-26T06:48:23;2.70;99.90
54260;DHT22;40172;53.022;7.012;2024-02-26T06:50:49;3.00;99.90
54260;DHT22;40172;53.022;7.012;2024-02-26T06:53:14;2.80;99.90
54260;DHT22;40172;53.022;7.012;2024-02-26T06:55:40;3.00;99.90
54260;DHT22;40172;53.022;7.012;2024-02-26T06:58:06;2.90;99.90
54260;DHT22;40172;53.022;7.012;2024-02-26T07:00:31;3.10;99.90
54260;DHT22;40172;53.022;7.012;2024-02-26T07:02:57;2.70;99.90
54260;DHT22;40172;53.022;7.012;2024-02-26T07:05:23;2.90;99.90
54260;DHT22;40172;53.022;7.012;2024-02-26T07:07:49;2.60;99.90
54260;DHT22;40172;53.022;7.012;2024-02-26T07:10:14;3.00;99.90
54260;DHT22;40172;53.022;7.012;2024-02-26T07:12:40;3.20;99.90
54260;DHT22;40172;53.022;7.012;2024-02-26T07:15:06;3.20;99.90
54260;DHT22;40172;53.022;7.012;2024-02-26T07:17:36;3.30;99.90
54260;DHT22;40172;53.022;7.012;2024-02-26T07:20:02;3.00;99.90
54260;DHT22;40172;53.022;7.012;2024-02-26T07:22:30;3.00;99.90
54260;DHT22;40172;53.022;7.012;2024-02-26T07:24:56;3.10;99.90
54260;DHT22;40172;53.022;7.012;2024-02-26T07:27:23;3.00;99.90
54260;DHT22;40172;53.022;7.012;2024-02-26T07:29:48;2.90;99.90
54260;DHT22;40172;53.022;7.012;2024-02-26T07:32:14;3.20;99.90
54260;DHT22;40172;53.022;7.012;2024-02-26T07:34:40;3.30;99.90
54260;DHT22;40172;53.022;7.012;2024-02-26T07:37:10;3.30;99.90
54260;DHT22;40172;53.022;7.012;2024-02-26T07:39:36;3.10;99.90
54260;DHT22;40172;53.022;7.012;2024-02-26T07:42:02;3.40;99.90
54260;DHT22;40172;53.022;7.012;2024-02-26T07:44:27;3.00;99.90
54260;DHT22;40172;53.022;7.012;2024-02-26T07:46:53;3.40;99.90
54260;DHT22;40172;53.022;7.012;2024-02-26T07:49:19;3.20;99.90
54260;DHT22;40172;53.022;7.012;2024-02-26T07:51:44;3.50;99.90
54260;DHT22;40172;53.022;7.012;2024-02-26T07:54:10;3.60;99.90
54260;DHT22;40172;53.022;7.012;2024-02-26T07:56:35;3.50;99.90
54260;DHT22;40172;53.022;7.012;2024-02-26T07:59:01;3.70;99.90
54260;DHT22;40172;53.022;7.012;2024-02-26T08:01:26;3.50;99.90
54260;DHT22;40172;53.022;7.012;2024-02-26T08:03:55;3.50;99.90
54260;DHT22;40172;53.022;7.012;2024-02-26T08:06:21;3.50;99.90
54260;DHT22;40172;53.022;7.012;2024-02-26T08:08:46;3.70;99.90
54260;DHT22;40172;53.022;7.012;2024-02-26T08:11:14;3.50;99.90
54260;DHT22;40172;53.022;7.012;2024-02-26T08:13:39;3.80;99.90
54260;DHT22;40172;53.022;7.012;2024-02-26T08:16:05;3.90;99.90
54260;DHT22;40172;53.022;7.012;2024-02-26T08:18:30;3.70;99.90
54260;DHT22;40172;53.022;7.012;2024-02-26T08:20:56;3.80;99.90
54260;DHT22;40172;53.022;7.012;2024-02-26T08:23:22;3.80;99.90
54260;DHT22;40172;53.022;7.012;2024-02-26T08:25:47;3.70;99.90
54260;DHT22;40172;53.022;7.012;2024-02-26T08:28:13;4.10;99.90
54260;DHT22;40172;53.022;7.012;2024-02-26T08:30:39;3.90;99.90
54260;DHT22;40172;53.022;7.012;2024-02-26T08:33:05;3.90;99.90
54260;DHT22;40172;53.022;7.012;2024-02-26T08:35:30;4.20;99.90
54260;DHT22;40172;53.022;7.012;2024-02-26T08:37:56;3.80;99.90
54260;DHT22;40172;53.022;7.012;2024-02-26T08:40:21;4.10;99.90
54260;DHT22;40172;53.022;7.012;2024-02-26T08:42:47;4.10;99.90
54260;DHT22;40172;53.022;7.012;2024-02-26T08:45:12;3.90;99.90
54260;DHT22;40172;53.022;7.012;2024-02-26T08:47:38;3.90;99.90
54260;DHT22;40172;53.022;7.012;2024-02-26T08:50:04;4.10;99.90
54260;DHT22;40172;53.022;7.012;2024-02-26T08:52:30;4.30;99.90
54260;DHT22;40172;53.022;7.012;2024-02-26T08:54:56;3.90;99.90
54260;DHT22;40172;53.022;7.012;2024-02-26T08:57:22;4.10;99.90
54260;DHT22;40172;53.022;7.012;2024-02-26T08:59:48;4.10;99.90
54260;DHT22;40172;53.022;7.012;2024-02-26T09:02:13;4.40;99.90
54260;DHT22;40172;53.022;7.012;2024-02-26T09:04:39;4.40;99.90
54260;DHT22;40172;53.022;7.012;2024-02-26T09:07:04;4.20;99.90
54260;DHT22;40172;53.022;7.012;2024-02-26T09:09:30;4.20;99.90
54260;DHT22;40172;53.022;7.012;2024-02-26T09:11:55;4.10;99.90
54260;DHT22;40172;53.022;7.012;2024-02-26T09:14:21;4.50;99.90
54260;DHT22;40172;53.022;7.012;2024-02-26T09:16:47;4.50;99.90
54260;DHT22;40172;53.022;7.012;2024-02-26T09:19:15;4.60;99.90
54260;DHT22;40172;53.022;7.012;2024-02-26T09:21:44;4.50;99.90
54260;DHT22;40172;53.022;7.012;2024-02-26T09:24:10;4.70;99.90
54260;DHT22;40172;53.022;7.012;2024-02-26T09:26:36;4.40;99.90
54260;DHT22;40172;53.022;7.012;2024-02-26T09:29:02;4.70;99.90
54260;DHT22;40172;53.022;7.012;2024-02-26T09:31:29;4.60;99.90
54260;DHT22;40172;53.022;7.012;2024-02-26T09:33:55;4.50;99.90
54260;DHT22;40172;53.022;7.012;2024-02-26T09:36:20;4.60;99.90
54260;DHT22;40172;53.022;7.012;2024-02-26T09:38:47;4.60;99.90
54260;DHT22;40172;53.022;7.012;2024-02-26T09:41:15;4.80;99.90
54260;DHT22;40172;53.022;7.012;2024-02-26T09:43:44;4.90;99.90
54260;DHT22;40172;53.022;7.012;2024-02-26T09:46:11;4.90;99.90
54260;DHT22;40172;53.022;7.012;2024-02-26T09:48:37;4.70;99.90
54260;DHT22;40172;53.022;7.012;2024-02-26T09:51:03;5.10;99.90
54260;DHT22;40172;53.022;7.012;2024-02-26T09:53:29;4.80;99.90
54260;DHT22;40172;53.022;7.012;2024-02-26T09:55:54;4.90;99.90
54260;DHT22;40172;53.022;7.012;2024-02-26T09:58:20;4.90;99.90
54260;DHT22;40172;53.022;7.012;2024-02-26T10:00:46;5.00;99.90
54260;DHT22;40172;53.022;7.012;2024-02-26T10:03:15;4.80;99.90
54260;DHT22;40172;53.022;7.012;2024-02-26T10:05:41;4.90;99.90
54260;DHT22;40172;53.022;7.012;2024-02-26T10:08:08;5.10;99.90
54260;DHT22;40172;53.022;7.012;2024-02-26T10:10:33;5.20;99.90
54260;DHT22;40172;53.022;7.012;2024-02-26T10:12:59;4.90;99.90
54260;DHT22;40172;53.022;7.012;2024-02-26T10:15:25;5.10;99.90
54260;DHT22;40172;53.022;7.012;2024-02-26T10:17:51;4.90;99.90
54260;DHT22;40172;53.022;7.012;2024-02-26T10:20:17;5.20;99.90
54260;DHT22;40172;53.022;7.012;2024-02-26T10:22:43;5.00;99.90
54260;DHT22;40172;53.022;7.012;2024-02-26T10:25:09;5.10;99.90
54260;DHT22;40172;53.022;7.012;2024-02-26T10:27:34;5.20;99.90
54260;DHT22;40172;53.022;7.012;2024-02-26T10:30:03;5.20;99.90
54260;DHT22;40172;53.022;7.012;2024-02-26T10:32:30;5.30;99.90
54260;DHT22;40172;53.022;7.012;2024-02-26T10:34:56;5.00;99.90
54260;DHT22;40172;53.022;7.012;2024-02-26T10:37:22;5.00;99.90
54260;DHT22;40172;53.022;7.012;2024-02-26T10:39:48;5.70;99.90
54260;DHT22;40172;53.022;7.012;2024-02-26T10:42:13;5.10;99.90
54260;DHT22;40172;53.022;7.012;2024-02-26T10:44:40;5.30;99.90
54260;DHT22;40172;53.022;7.012;2024-02-26T10:47:07;5.20;99.90
54260;DHT22;40172;53.022;7.012;2024-02-26T10:49:33;5.30;99.90
54260;DHT22;40172;53.022;7.012;2024-02-26T10:51:59;5.30;99.90
54260;DHT22;40172;53.022;7.012;2024-02-26T10:54:26;5.30;99.90
54260;DHT22;40172;53.022;7.012;2024-02-26T10:56:55;5.80;99.90
54260;DHT22;40172;53.022;7.012;2024-02-26T10:59:21;5.40;99.90
54260;DHT22;40172;53.022;7.012;2024-02-26T11:01:47;5.40;99.90
54260;DHT22;40172;53.022;7.012;2024-02-26T11:04:13;5.30;99.90
54260;DHT22;40172;53.022;7.012;2024-02-26T11:06:40;5.50;99.90
54260;DHT22;40172;53.022;7.012;2024-02-26T11:09:06;5.30;99.90
54260;DHT22;40172;53.022;7.012;2024-02-26T11:11:33;5.60;99.90
54260;DHT22;40172;53.022;7.012;2024-02-26T11:14:01;5.40;99.90
54260;DHT22;40172;53.022;7.012;2024-02-26T11:16:26;5.60;99.90
54260;DHT22;40172;53.022;7.012;2024-02-26T11:18:53;6.10;99.90
54260;DHT22;40172;53.022;7.012;2024-02-26T11:21:21;5.60;99.90
54260;DHT22;40172;53.022;7.012;2024-02-26T11:23:56;5.60;99.90
54260;DHT22;40172;53.022;7.012;2024-02-26T11:26:21;5.90;99.90
54260;DHT22;40172;53.022;7.012;2024-02-26T11:28:48;6.40;99.90
54260;DHT22;40172;53.022;7.012;2024-02-26T11:31:14;5.80;99.90
54260;DHT22;40172;53.022;7.012;2024-02-26T11:33:40;6.50;99.90
54260;DHT22;40172;53.022;7.012;2024-02-26T11:36:12;5.80;99.90
54260;DHT22;40172;53.022;7.012;2024-02-26T11:38:39;6.00;99.90
54260;DHT22;40172;53.022;7.012;2024-02-26T11:41:05;6.30;99.90
54260;DHT22;40172;53.022;7.012;2024-02-26T11:43:50;5.80;99.90
54260;DHT22;40172;53.022;7.012;2024-02-26T11:46:24;5.90;99.90
54260;DHT22;40172;53.022;7.012;2024-02-26T11:48:50;6.00;99.90
54260;DHT22;40172;53.022;7.012;2024-02-26T11:51:15;5.90;99.90
54260;DHT22;40172;53.022;7.012;2024-02-26T11:53:47;5.80;99.90
54260;DHT22;40172;53.022;7.012;2024-02-26T11:59:03;6.00;99.90
54260;DHT22;40172;53.022;7.012;2024-02-26T12:01:39;5.90;99.90
54260;DHT22;40172;53.022;7.012;2024-02-26T12:04:06;6.20;99.90
54260;DHT22;40172;53.022;7.012;2024-02-26T12:06:39;6.20;99.90
54260;DHT22;40172;53.022;7.012;2024-02-26T12:09:06;6.20;99.90
54260;DHT22;40172;53.022;7.012;2024-02-26T12:11:34;6.40;99.90
54260;DHT22;40172;53.022;7.012;2024-02-26T12:14:03;6.20;99.90
54260;DHT22;40172;53.022;7.012;2024-02-26T12:16:35;6.50;99.90
54260;DHT22;40172;53.022;7.012;2024-02-26T12:19:05;6.70;99.90
54260;DHT22;40172;53.022;7.012;2024-02-26T12:21:36;6.60;99.90
54260;DHT22;40172;53.022;7.012;2024-02-26T12:24:14;6.60;99.90
54260;DHT22;40172;53.022;7.012;2024-02-26T12:26:43;6.60;99.90
54260;DHT22;40172;53.022;7.012;2024-02-26T12:29:09;6.00;99.90
54260;DHT22;40172;53.022;7.012;2024-02-26T12:31:36;6.30;99.90
54260;DHT22;40172;53.022;7.012;2024-02-26T12:34:03;6.40;99.90
54260;DHT22;40172;53.022;7.012;2024-02-26T12:36:29;6.40;99.90
54260;DHT22;40172;53.022;7.012;2024-02-26T12:38:54;6.50;99.90
54260;DHT22;40172;53.022;7.012;2024-02-26T12:41:21;6.40;99.90
54260;DHT22;40172;53.022;7.012;2024-02-26T12:43:47;6.10;99.90
54260;DHT22;40172;53.022;7.012;2024-02-26T12:46:12;6.20;99.90
54260;DHT22;40172;53.022;7.012;2024-02-26T12:48:46;6.10;99.90
54260;DHT22;40172;53.022;7.012;2024-02-26T12:51:12;6.10;99.90
54260;DHT22;40172;53.022;7.012;2024-02-26T12:53:40;6.10;99.90
54260;DHT22;40172;53.022;7.012;2024-02-26T12:56:07;6.50;99.90
54260;DHT22;40172;53.022;7.012;2024-02-26T12:58:34;6.10;99.90
54260;DHT22;40172;53.022;7.012;2024-02-26T13:00:59;6.10;99.90
54260;DHT22;40172;53.022;7.012;2024-02-26T13:03:26;6.10;99.90
54260;DHT22;40172;53.022;7.012;2024-02-26T13:05:52;5.90;99.90
54260;DHT22;40172;53.022;7.012;2024-02-26T13:08:19;5.90;99.90
54260;DHT22;40172;53.022;7.012;2024-02-26T13:10:45;6.00;99.90
54260;DHT22;40172;53.022;7.012;2024-02-26T13:13:11;5.90;99.90
54260;DHT22;40172;53.022;7.012;2024-02-26T13:15:36;6.10;99.90
54260;DHT22;40172;53.022;7.012;2024-02-26T13:18:12;6.00;99.90
54260;DHT22;40172;53.022;7.012;2024-02-26T13:20:37;5.80;99.90
54260;DHT22;40172;53.022;7.012;2024-02-26T13:23:06;5.80;99.90
54260;DHT22;40172;53.022;7.012;2024-02-26T13:25:32;5.90;99.90
54260;DHT22;40172;53.022;7.012;2024-02-26T13:28:09;5.90;99.90
54260;DHT22;40172;53.022;7.012;2024-02-26T13:30:37;5.90;99.90
54260;DHT22;40172;53.022;7.012;2024-02-26T13:33:07;5.90;99.90
54260;DHT22;40172;53.022;7.012;2024-02-26T13:35:33;5.60;99.90
54260;DHT22;40172;53.022;7.012;2024-02-26T13:38:00;5.70;99.90
54260;DHT22;40172;53.022;7.012;2024-02-26T13:40:26;5.50;99.90
54260;DHT22;40172;53.022;7.012;2024-02-26T13:42:51;5.60;99.90
54260;DHT22;40172;53.022;7.012;2024-02-26T13:45:18;5.40;99.90
54260;DHT22;40172;53.022;7.012;2024-02-26T13:47:43;5.40;99.90
54260;DHT22;40172;53.022;7.012;2024-02-26T13:50:09;5.50;99.90
54260;DHT22;40172;53.022;7.012;2024-02-26T13:52:35;5.40;99.90
54260;DHT22;40172;53.022;7.012;2024-02-26T13:55:01;5.50;99.90
54260;DHT22;40172;53.022;7.012;2024-02-26T13:57:27;5.30;99.90
54260;DHT22;40172;53.022;7.012;2024-02-26T13:59:54;5.40;99.90
54260;DHT22;40172;53.022;7.012;2024-02-26T14:02:19;5.40;99.90
54260;DHT22;40172;53.022;7.012;2024-02-26T14:04:46;5.20;99.90
54260;DHT22;40172;53.022;7.012;2024-02-26T14:07:11;6.20;99.90
54260;DHT22;40172;53.022;7.012;2024-02-26T14:09:37;6.00;99.90
54260;DHT22;40172;53.022;7.012;2024-02-26T14:12:03;5.30;99.90
54260;DHT22;40172;53.022;7.012;2024-02-26T14:14:29;5.30;99.90
54260;DHT22;40172;53.022;7.012;2024-02-26T14:16:58;5.20;99.90
54260;DHT22;40172;53.022;7.012;2024-02-26T14:19:23;5.20;99.90
54260;DHT22;40172;53.022;7.012;2024-02-26T14:21:49;5.40;99.90
54260;DHT22;40172;53.022;7.012;2024-02-26T14:24:14;5.30;99.90
54260;DHT22;40172;53.022;7.012;2024-02-26T14:26:41;5.30;99.90
54260;DHT22;40172;53.022;7.012;2024-02-26T14:29:06;5.20;99.90
54260;DHT22;40172;53.022;7.012;2024-02-26T14:31:32;5.30;99.90
54260;DHT22;40172;53.022;7.012;2024-02-26T14:33:58;5.40;99.90
54260;DHT22;40172;53.022;7.012;2024-02-26T14:36:24;5.30;99.90
54260;DHT22;40172;53.022;7.012;2024-02-26T14:38:50;5.30;99.90
54260;DHT22;40172;53.022;7.012;2024-02-26T14:41:15;5.20;99.90
54260;DHT22;40172;53.022;7.012;2024-02-26T14:43:41;5.30;99.90
54260;DHT22;40172;53.022;7.012;2024-02-26T14:46:07;5.30;99.90
54260;DHT22;40172;53.022;7.012;2024-02-26T14:48:33;5.20;99.90
54260;DHT22;40172;53.022;7.012;2024-02-26T14:50:59;5.30;99.90
54260;DHT22;40172;53.022;7.012;2024-02-26T14:53:25;5.30;99.90
54260;DHT22;40172;53.022;7.012;2024-02-26T14:55:51;5.30;99.90
54260;DHT22;40172;53.022;7.012;2024-02-26T14:58:16;5.30;99.90
54260;DHT22;40172;53.022;7.012;2024-02-26T15:00:42;5.50;99.90
54260;DHT22;40172;53.022;7.012;2024-02-26T15:03:07;5.30;99.90
54260;DHT22;40172;53.022;7.012;2024-02-26T15:05:33;5.30;99.90
54260;DHT22;40172;53.022;7.012;2024-02-26T15:07:59;5.30;99.90
54260;DHT22;40172;53.022;7.012;2024-02-26T15:10:25;5.30;99.90
54260;DHT22;40172;53.022;7.012;2024-02-26T15:12:50;5.20;99.90
54260;DHT22;40172;53.022;7.012;2024-02-26T15:15:20;5.30;99.90
54260;DHT22;40172;53.022;7.012;2024-02-26T15:17:45;5.30;99.90
54260;DHT22;40172;53.022;7.012;2024-02-26T15:20:11;5.10;99.90
54260;DHT22;40172;53.022;7.012;2024-02-26T15:22:37;5.20;99.90
54260;DHT22;40172;53.022;7.012;2024-02-26T15:25:02;5.30;99.90
54260;DHT22;40172;53.022;7.012;2024-02-26T15:27:28;5.10;99.90
54260;DHT22;40172;53.022;7.012;2024-02-26T15:29:54;5.20;99.90
54260;DHT22;40172;53.022;7.012;2024-02-26T15:32:23;5.20;99.90
54260;DHT22;40172;53.022;7.012;2024-02-26T15:34:50;5.10;99.90
54260;DHT22;40172;53.022;7.012;2024-02-26T15:37:16;5.10;99.90
54260;DHT22;40172;53.022;7.012;2024-02-26T15:39:41;5.10;99.90
54260;DHT22;40172;53.022;7.012;2024-02-26T15:42:07;4.80;99.90
54260;DHT22;40172;53.022;7.012;2024-02-26T15:44:32;4.90;99.90